EZY27A LPPR-LPMA
Flight info
| Callsign | EZY27A |
|---|---|
| Flight time | 1h 57m |
| Altitude | 39000 |
| Route | ASMOV DCT DIRMA DCT VABEM DCT LIDRO |
| Aircraft | A339/H-SADE1E2E3GHIJ3J5M1P2RWXY/LB2D1 |
Departure
| Time | 2026-05-04 19:28 |
|---|---|
| Airport | Francisco de Sá Carneiro Airport (LPPR) |
Arrival
| Time | 2026-05-04 21:25 |
|---|---|
| Airport | Cristiano Ronaldo International Airport (LPMA) |
| Time | Latitude | Longitude | Altitude | Speed | Heading |
|---|---|---|---|---|---|
| 2026-05-04 19:10 | 41.23551 | -8.67244 | 241 ft | 0 kts | 111° |
| 2026-05-04 19:17 | 41.23554 | -8.67255 | 241 ft | 3 kts | 111° |
| 2026-05-04 19:17 | 41.23562 | -8.67283 | 258 ft | 3 kts | 111° |
| 2026-05-04 19:17 | 41.23570 | -8.67310 | 240 ft | 3 kts | 110° |
| 2026-05-04 19:18 | 41.23578 | -8.67339 | 240 ft | 3 kts | 148° |
| 2026-05-04 19:18 | 41.23599 | -8.67348 | 240 ft | 3 kts | 214° |
| 2026-05-04 19:18 | 41.23589 | -8.67345 | 240 ft | 4 kts | 184° |
| 2026-05-04 19:18 | 41.23587 | -8.67345 | 240 ft | 0 kts | 184° |
| 2026-05-04 19:19 | 41.23583 | -8.67345 | 240 ft | 2 kts | 184° |
| 2026-05-04 19:19 | 41.23561 | -8.67356 | 240 ft | 5 kts | 203° |
| 2026-05-04 19:20 | 41.23521 | -8.67386 | 240 ft | 9 kts | 204° |
| 2026-05-04 19:20 | 41.23453 | -8.67386 | 240 ft | 12 kts | 165° |
| 2026-05-04 19:20 | 41.23364 | -8.67371 | 240 ft | 13 kts | 193° |
| 2026-05-04 19:20 | 41.23329 | -8.67444 | 240 ft | 10 kts | 255° |
| 2026-05-04 19:21 | 41.23321 | -8.67496 | 241 ft | 0 kts | 259° |
| 2026-05-04 19:21 | 41.23321 | -8.67498 | 241 ft | 1 kts | 259° |
| 2026-05-04 19:22 | 41.23318 | -8.67519 | 242 ft | 6 kts | 259° |
| 2026-05-04 19:22 | 41.23307 | -8.67601 | 244 ft | 5 kts | 260° |
| 2026-05-04 19:22 | 41.23307 | -8.67602 | 244 ft | 0 kts | 260° |
| 2026-05-04 19:25 | 41.23306 | -8.67604 | 245 ft | 1 kts | 260° |
| 2026-05-04 19:25 | 41.23305 | -8.67614 | 245 ft | 1 kts | 260° |
| 2026-05-04 19:26 | 41.23301 | -8.67648 | 246 ft | 9 kts | 260° |
| 2026-05-04 19:26 | 41.23308 | -8.67733 | 247 ft | 7 kts | 306° |
| 2026-05-04 19:26 | 41.23367 | -8.67754 | 245 ft | 13 kts | 349° |
| 2026-05-04 19:26 | 41.23378 | -8.67757 | 244 ft | 0 kts | 348° |
| 2026-05-04 19:27 | 41.23379 | -8.67757 | 244 ft | 2 kts | 348° |
| 2026-05-04 19:27 | 41.23383 | -8.67756 | 244 ft | 0 kts | 355° |
| 2026-05-04 19:27 | 41.23412 | -8.67762 | 243 ft | 10 kts | 350° |
| 2026-05-04 19:27 | 41.23602 | -8.67815 | 238 ft | 67 kts | 347° |
| 2026-05-04 19:28 | 41.24443 | -8.68038 | 220 ft | 171 kts | 348° |
| 2026-05-04 19:28 | 41.25719 | -8.68344 | 985 ft | 193 kts | 348° |
| 2026-05-04 19:28 | 41.27041 | -8.68674 | 2309 ft | 193 kts | 346° |
| 2026-05-04 19:28 | 41.28397 | -8.69044 | 3303 ft | 204 kts | 345° |
| 2026-05-04 19:29 | 41.29828 | -8.69471 | 4060 ft | 220 kts | 346° |
| 2026-05-04 19:29 | 41.31396 | -8.69886 | 4654 ft | 238 kts | 346° |
| 2026-05-04 19:29 | 41.33044 | -8.70308 | 5270 ft | 245 kts | 347° |
| 2026-05-04 19:29 | 41.34733 | -8.70739 | 5369 ft | 250 kts | 346° |
| 2026-05-04 19:30 | 41.36418 | -8.71175 | 6016 ft | 250 kts | 346° |
| 2026-05-04 19:30 | 41.38125 | -8.71619 | 6879 ft | 250 kts | 346° |
| 2026-05-04 19:30 | 41.39769 | -8.72351 | 7609 ft | 251 kts | 329° |
| 2026-05-04 19:30 | 41.41046 | -8.73916 | 8368 ft | 252 kts | 304° |
| 2026-05-04 19:31 | 41.41720 | -8.76069 | 9187 ft | 255 kts | 281° |
| 2026-05-04 19:31 | 41.41673 | -8.78408 | 9999 ft | 260 kts | 260° |
| 2026-05-04 19:31 | 41.41265 | -8.80774 | 10704 ft | 264 kts | 259° |
| 2026-05-04 19:31 | 41.40857 | -8.83157 | 11475 ft | 265 kts | 258° |
| 2026-05-04 19:32 | 41.40179 | -8.85459 | 12238 ft | 270 kts | 244° |
| 2026-05-04 19:32 | 41.39029 | -8.87468 | 12999 ft | 277 kts | 229° |
| 2026-05-04 19:32 | 41.37542 | -8.89137 | 13738 ft | 282 kts | 223° |
| 2026-05-04 19:32 | 41.36019 | -8.90799 | 14411 ft | 284 kts | 224° |
| 2026-05-04 19:33 | 41.34497 | -8.92487 | 15081 ft | 286 kts | 225° |
| 2026-05-04 19:33 | 41.32974 | -8.94196 | 15753 ft | 288 kts | 225° |
| 2026-05-04 19:33 | 41.31444 | -8.95925 | 16418 ft | 290 kts | 226° |
| 2026-05-04 19:33 | 41.29904 | -8.97670 | 17072 ft | 292 kts | 226° |
| 2026-05-04 19:34 | 41.28353 | -8.99427 | 17738 ft | 294 kts | 226° |
| 2026-05-04 19:34 | 41.26785 | -9.01200 | 18397 ft | 297 kts | 226° |
| 2026-05-04 19:34 | 41.25209 | -9.02981 | 18968 ft | 298 kts | 227° |
| 2026-05-04 19:34 | 41.23625 | -9.04767 | 19562 ft | 299 kts | 227° |
| 2026-05-04 19:35 | 41.22034 | -9.06560 | 20140 ft | 301 kts | 227° |
| 2026-05-04 19:35 | 41.20435 | -9.08361 | 20713 ft | 302 kts | 227° |
| 2026-05-04 19:35 | 41.18825 | -9.10173 | 21285 ft | 304 kts | 227° |
| 2026-05-04 19:35 | 41.17208 | -9.11993 | 21852 ft | 306 kts | 227° |
| 2026-05-04 19:36 | 41.15581 | -9.13822 | 22419 ft | 307 kts | 227° |
| 2026-05-04 19:36 | 41.13944 | -9.15661 | 22977 ft | 309 kts | 228° |
| 2026-05-04 19:36 | 41.12299 | -9.17507 | 23505 ft | 311 kts | 228° |
| 2026-05-04 19:36 | 41.10643 | -9.19365 | 23983 ft | 313 kts | 228° |
| 2026-05-04 19:37 | 41.08977 | -9.21232 | 24420 ft | 314 kts | 228° |
| 2026-05-04 19:37 | 41.07304 | -9.23105 | 24846 ft | 316 kts | 228° |
| 2026-05-04 19:37 | 41.05619 | -9.24990 | 25283 ft | 318 kts | 228° |
| 2026-05-04 19:37 | 41.03926 | -9.26882 | 25706 ft | 319 kts | 228° |
| 2026-05-04 19:38 | 41.02227 | -9.28781 | 26117 ft | 321 kts | 228° |
| 2026-05-04 19:38 | 41.00515 | -9.30691 | 26510 ft | 322 kts | 228° |
| 2026-05-04 19:38 | 40.98797 | -9.32607 | 26905 ft | 324 kts | 228° |
| 2026-05-04 19:38 | 40.97073 | -9.34534 | 27287 ft | 325 kts | 229° |
| 2026-05-04 19:39 | 40.95450 | -9.36591 | 27657 ft | 323 kts | 233° |
| 2026-05-04 19:39 | 40.93857 | -9.38699 | 28043 ft | 324 kts | 233° |
| 2026-05-04 19:39 | 40.92256 | -9.40810 | 28414 ft | 326 kts | 233° |
| 2026-05-04 19:39 | 40.90645 | -9.42926 | 28787 ft | 328 kts | 233° |
| 2026-05-04 19:40 | 40.89021 | -9.45052 | 29161 ft | 329 kts | 233° |
| 2026-05-04 19:40 | 40.87390 | -9.47183 | 29502 ft | 331 kts | 233° |
| 2026-05-04 19:40 | 40.85744 | -9.49316 | 29874 ft | 333 kts | 232° |
| 2026-05-04 19:40 | 40.83946 | -9.51306 | 30217 ft | 341 kts | 226° |
| 2026-05-04 19:41 | 40.82008 | -9.53139 | 30502 ft | 344 kts | 225° |
| 2026-05-04 19:41 | 40.80056 | -9.54981 | 30772 ft | 346 kts | 225° |
| 2026-05-04 19:41 | 40.78098 | -9.56839 | 31056 ft | 348 kts | 225° |
| 2026-05-04 19:41 | 40.76132 | -9.58713 | 31337 ft | 349 kts | 225° |
| 2026-05-04 19:42 | 40.74158 | -9.60598 | 31610 ft | 351 kts | 225° |
| 2026-05-04 19:42 | 40.72173 | -9.62494 | 31909 ft | 353 kts | 225° |
| 2026-05-04 19:42 | 40.70207 | -9.64371 | 32182 ft | 355 kts | 225° |
| 2026-05-04 19:42 | 40.68200 | -9.66285 | 32448 ft | 357 kts | 225° |
| 2026-05-04 19:43 | 40.66186 | -9.68205 | 32717 ft | 359 kts | 225° |
| 2026-05-04 19:43 | 40.64160 | -9.70134 | 32994 ft | 360 kts | 225° |
| 2026-05-04 19:43 | 40.62124 | -9.72071 | 33260 ft | 362 kts | 225° |
| 2026-05-04 19:43 | 40.60078 | -9.74016 | 33493 ft | 364 kts | 225° |
| 2026-05-04 19:44 | 40.58021 | -9.75969 | 33760 ft | 365 kts | 225° |
| 2026-05-04 19:44 | 40.55954 | -9.77931 | 34033 ft | 367 kts | 225° |
| 2026-05-04 19:44 | 40.53877 | -9.79899 | 34251 ft | 369 kts | 225° |
| 2026-05-04 19:44 | 40.51789 | -9.81878 | 34441 ft | 371 kts | 225° |
| 2026-05-04 19:45 | 40.49693 | -9.83862 | 34634 ft | 373 kts | 224° |
| 2026-05-04 19:45 | 40.47581 | -9.85860 | 34824 ft | 375 kts | 224° |
| 2026-05-04 19:45 | 40.45461 | -9.87863 | 35016 ft | 377 kts | 224° |
| 2026-05-04 19:45 | 40.43328 | -9.89878 | 35201 ft | 378 kts | 224° |
| 2026-05-04 19:46 | 40.41187 | -9.91898 | 35385 ft | 380 kts | 224° |
| 2026-05-04 19:46 | 40.39032 | -9.93930 | 35564 ft | 382 kts | 224° |
| 2026-05-04 19:46 | 40.36871 | -9.95965 | 35736 ft | 384 kts | 224° |
| 2026-05-04 19:46 | 40.35399 | -9.97350 | 35854 ft | 385 kts | 224° |
| 2026-05-04 19:47 | 40.33248 | -9.99374 | 36016 ft | 387 kts | 224° |
| 2026-05-04 19:47 | 40.31056 | -10.01434 | 36193 ft | 389 kts | 223° |
| 2026-05-04 19:47 | 40.28824 | -10.03529 | 36352 ft | 391 kts | 223° |
| 2026-05-04 19:47 | 40.26638 | -10.05580 | 36510 ft | 392 kts | 223° |
| 2026-05-04 19:48 | 40.24384 | -10.07693 | 36675 ft | 394 kts | 223° |
| 2026-05-04 19:48 | 40.22181 | -10.09756 | 36834 ft | 396 kts | 223° |
| 2026-05-04 19:48 | 40.19908 | -10.11883 | 37006 ft | 397 kts | 223° |
| 2026-05-04 19:48 | 40.17657 | -10.13989 | 37151 ft | 399 kts | 223° |
| 2026-05-04 19:49 | 40.15424 | -10.16074 | 37305 ft | 400 kts | 223° |
| 2026-05-04 19:49 | 40.13153 | -10.18195 | 37456 ft | 402 kts | 223° |
| 2026-05-04 19:49 | 40.10846 | -10.20346 | 37609 ft | 403 kts | 223° |
| 2026-05-04 19:49 | 40.08590 | -10.22449 | 37758 ft | 405 kts | 222° |
| 2026-05-04 19:50 | 40.06296 | -10.24584 | 37909 ft | 406 kts | 222° |
| 2026-05-04 19:50 | 40.03991 | -10.26729 | 38054 ft | 407 kts | 222° |
| 2026-05-04 19:50 | 40.01681 | -10.28876 | 38198 ft | 408 kts | 222° |
| 2026-05-04 19:50 | 39.99362 | -10.31029 | 38345 ft | 409 kts | 222° |
| 2026-05-04 19:51 | 39.97039 | -10.33184 | 38489 ft | 410 kts | 222° |
| 2026-05-04 19:51 | 39.94709 | -10.35344 | 38611 ft | 412 kts | 222° |
| 2026-05-04 19:51 | 39.92375 | -10.37506 | 38763 ft | 412 kts | 222° |
| 2026-05-04 19:51 | 39.90035 | -10.39672 | 38883 ft | 413 kts | 222° |
| 2026-05-04 19:52 | 39.87687 | -10.41843 | 38996 ft | 414 kts | 221° |
| 2026-05-04 19:52 | 39.85339 | -10.44012 | 39117 ft | 414 kts | 221° |
| 2026-05-04 19:52 | 39.82983 | -10.46187 | 39141 ft | 415 kts | 221° |
| 2026-05-04 19:53 | 39.78284 | -10.50516 | 39138 ft | 413 kts | 221° |
| 2026-05-04 19:53 | 39.73594 | -10.54832 | 39137 ft | 412 kts | 221° |
| 2026-05-04 19:54 | 39.68912 | -10.59134 | 39139 ft | 412 kts | 221° |
| 2026-05-04 19:54 | 39.64229 | -10.63430 | 39139 ft | 412 kts | 221° |
| 2026-05-04 19:55 | 39.59552 | -10.67712 | 39141 ft | 411 kts | 221° |
| 2026-05-04 19:55 | 39.54878 | -10.71985 | 39145 ft | 411 kts | 221° |
| 2026-05-04 19:56 | 39.50206 | -10.76249 | 39143 ft | 411 kts | 221° |
| 2026-05-04 19:56 | 39.45537 | -10.80502 | 39145 ft | 410 kts | 221° |
| 2026-05-04 19:57 | 39.40871 | -10.84747 | 39147 ft | 410 kts | 221° |
| 2026-05-04 19:57 | 39.36204 | -10.88985 | 39146 ft | 410 kts | 221° |
| 2026-05-04 19:58 | 39.31541 | -10.93212 | 39159 ft | 410 kts | 221° |
| 2026-05-04 19:58 | 39.26872 | -10.97437 | 39152 ft | 410 kts | 221° |
| 2026-05-04 19:59 | 39.22208 | -11.01652 | 39150 ft | 409 kts | 221° |
| 2026-05-04 19:59 | 39.17540 | -11.05863 | 39151 ft | 410 kts | 221° |
| 2026-05-04 20:00 | 39.12869 | -11.10070 | 39148 ft | 409 kts | 221° |
| 2026-05-04 20:00 | 39.08199 | -11.14270 | 39155 ft | 410 kts | 221° |
| 2026-05-04 20:01 | 39.03526 | -11.18465 | 39155 ft | 410 kts | 221° |
| 2026-05-04 20:01 | 38.99401 | -11.22161 | 39160 ft | 410 kts | 221° |
| 2026-05-04 20:09 | 38.99271 | -11.22278 | 39158 ft | 410 kts | 221° |
| 2026-05-04 20:09 | 38.94769 | -11.26306 | 39164 ft | 410 kts | 221° |
| 2026-05-04 20:10 | 38.90085 | -11.30490 | 39160 ft | 410 kts | 221° |
| 2026-05-04 20:10 | 38.85401 | -11.34668 | 39166 ft | 410 kts | 221° |
| 2026-05-04 20:11 | 38.80716 | -11.38840 | 39165 ft | 410 kts | 220° |
| 2026-05-04 20:11 | 38.76025 | -11.43009 | 39167 ft | 410 kts | 220° |
| 2026-05-04 20:12 | 38.71328 | -11.47177 | 39166 ft | 411 kts | 220° |
| 2026-05-04 20:12 | 38.66631 | -11.51339 | 39169 ft | 410 kts | 220° |
| 2026-05-04 20:13 | 38.61933 | -11.55494 | 39171 ft | 411 kts | 220° |
| 2026-05-04 20:13 | 38.57227 | -11.59650 | 39170 ft | 411 kts | 220° |
| 2026-05-04 20:14 | 38.52519 | -11.63801 | 39170 ft | 411 kts | 220° |
| 2026-05-04 20:14 | 38.47812 | -11.67944 | 39171 ft | 411 kts | 220° |
| 2026-05-04 20:15 | 38.43103 | -11.72083 | 39173 ft | 411 kts | 220° |
| 2026-05-04 20:15 | 38.38396 | -11.76214 | 39170 ft | 411 kts | 220° |
| 2026-05-04 20:16 | 38.33689 | -11.80337 | 39171 ft | 411 kts | 220° |
| 2026-05-04 20:16 | 38.28977 | -11.84458 | 39176 ft | 411 kts | 220° |
| 2026-05-04 20:17 | 38.24270 | -11.88568 | 39179 ft | 410 kts | 220° |
| 2026-05-04 20:17 | 38.19561 | -11.92672 | 39183 ft | 410 kts | 220° |
| 2026-05-04 20:18 | 38.14861 | -11.96764 | 39191 ft | 409 kts | 220° |
| 2026-05-04 20:18 | 38.10166 | -12.00845 | 39176 ft | 409 kts | 220° |
| 2026-05-04 20:19 | 38.05473 | -12.04916 | 39182 ft | 408 kts | 220° |
| 2026-05-04 20:19 | 38.00783 | -12.08979 | 39180 ft | 408 kts | 220° |
| 2026-05-04 20:20 | 37.96100 | -12.13029 | 39181 ft | 407 kts | 220° |
| 2026-05-04 20:20 | 37.91424 | -12.17067 | 39186 ft | 407 kts | 220° |
| 2026-05-04 20:21 | 37.86786 | -12.21067 | 39181 ft | 406 kts | 220° |
| 2026-05-04 20:21 | 37.79791 | -12.27086 | 39183 ft | 405 kts | 220° |
| 2026-05-04 20:22 | 37.75136 | -12.31085 | 39181 ft | 404 kts | 220° |
| 2026-05-04 20:22 | 37.70485 | -12.35074 | 39182 ft | 404 kts | 220° |
| 2026-05-04 20:23 | 37.65803 | -12.39084 | 39187 ft | 404 kts | 220° |
| 2026-05-04 20:23 | 37.61184 | -12.43033 | 39186 ft | 404 kts | 220° |
| 2026-05-04 20:24 | 37.56533 | -12.47003 | 39183 ft | 404 kts | 220° |
| 2026-05-04 20:24 | 37.51886 | -12.50964 | 39180 ft | 403 kts | 220° |
| 2026-05-04 20:25 | 37.47240 | -12.54918 | 39188 ft | 403 kts | 219° |
| 2026-05-04 20:25 | 37.42594 | -12.58866 | 39185 ft | 403 kts | 219° |
| 2026-05-04 20:26 | 37.37941 | -12.62815 | 39187 ft | 403 kts | 219° |
| 2026-05-04 20:26 | 37.33288 | -12.66757 | 39186 ft | 403 kts | 219° |
| 2026-05-04 20:27 | 37.28635 | -12.70693 | 39186 ft | 403 kts | 219° |
| 2026-05-04 20:27 | 37.23976 | -12.74628 | 39188 ft | 404 kts | 219° |
| 2026-05-04 20:28 | 37.19317 | -12.78557 | 39188 ft | 404 kts | 219° |
| 2026-05-04 20:28 | 37.14654 | -12.82483 | 39185 ft | 404 kts | 219° |
| 2026-05-04 20:29 | 37.09990 | -12.86405 | 39193 ft | 404 kts | 219° |
| 2026-05-04 20:29 | 37.05320 | -12.90325 | 39177 ft | 404 kts | 219° |
| 2026-05-04 20:30 | 37.01437 | -12.93581 | 39187 ft | 404 kts | 219° |
| 2026-05-04 20:30 | 36.96761 | -12.97496 | 39186 ft | 405 kts | 219° |
| 2026-05-04 20:31 | 36.92080 | -13.01410 | 39188 ft | 405 kts | 219° |
| 2026-05-04 20:31 | 36.87392 | -13.05322 | 39187 ft | 405 kts | 219° |
| 2026-05-04 20:32 | 36.82704 | -13.09229 | 39185 ft | 405 kts | 219° |
| 2026-05-04 20:32 | 36.78011 | -13.13134 | 39190 ft | 405 kts | 219° |
| 2026-05-04 20:33 | 36.73317 | -13.17035 | 39190 ft | 405 kts | 219° |
| 2026-05-04 20:33 | 36.68623 | -13.20932 | 39196 ft | 406 kts | 219° |
| 2026-05-04 20:34 | 36.63925 | -13.24828 | 39194 ft | 406 kts | 218° |
| 2026-05-04 20:34 | 36.59229 | -13.28716 | 39190 ft | 405 kts | 218° |
| 2026-05-04 20:35 | 36.54534 | -13.32598 | 39194 ft | 405 kts | 218° |
| 2026-05-04 20:35 | 36.50033 | -13.36766 | 39196 ft | 403 kts | 223° |
| 2026-05-04 20:36 | 36.45629 | -13.41074 | 39195 ft | 403 kts | 222° |
| 2026-05-04 20:36 | 36.41228 | -13.45298 | 39193 ft | 403 kts | 222° |
| 2026-05-04 20:37 | 36.36850 | -13.49459 | 39199 ft | 402 kts | 221° |
| 2026-05-04 20:37 | 36.32335 | -13.53739 | 39195 ft | 417 kts | 221° |
| 2026-05-04 20:38 | 36.27653 | -13.58176 | 39199 ft | 427 kts | 221° |
| 2026-05-04 20:38 | 36.22937 | -13.62628 | 39198 ft | 426 kts | 221° |
| 2026-05-04 20:39 | 36.18229 | -13.67067 | 39201 ft | 425 kts | 221° |
| 2026-05-04 20:39 | 36.13525 | -13.71498 | 39199 ft | 425 kts | 221° |
| 2026-05-04 20:40 | 36.08829 | -13.75915 | 39196 ft | 424 kts | 221° |
| 2026-05-04 20:40 | 36.04134 | -13.80324 | 39196 ft | 423 kts | 221° |
| 2026-05-04 20:41 | 35.99446 | -13.84721 | 39201 ft | 423 kts | 221° |
| 2026-05-04 20:41 | 35.94789 | -13.89081 | 39199 ft | 423 kts | 221° |
| 2026-05-04 20:42 | 35.90103 | -13.93462 | 39195 ft | 422 kts | 221° |
| 2026-05-04 20:42 | 35.85421 | -13.97833 | 39195 ft | 422 kts | 221° |
| 2026-05-04 20:43 | 35.80733 | -14.02202 | 39196 ft | 422 kts | 221° |
| 2026-05-04 20:43 | 35.76045 | -14.06565 | 39200 ft | 422 kts | 220° |
| 2026-05-04 20:44 | 35.71354 | -14.10924 | 39201 ft | 422 kts | 220° |
| 2026-05-04 20:44 | 35.66667 | -14.15272 | 39202 ft | 422 kts | 220° |
| 2026-05-04 20:45 | 35.61974 | -14.19620 | 39198 ft | 422 kts | 220° |
| 2026-05-04 20:45 | 35.57274 | -14.23967 | 39198 ft | 423 kts | 220° |
| 2026-05-04 20:46 | 35.52573 | -14.28309 | 39194 ft | 423 kts | 220° |
| 2026-05-04 20:46 | 35.47869 | -14.32647 | 39193 ft | 423 kts | 220° |
| 2026-05-04 20:47 | 35.43155 | -14.36987 | 39194 ft | 424 kts | 220° |
| 2026-05-04 20:47 | 35.38473 | -14.41293 | 39196 ft | 424 kts | 220° |
| 2026-05-04 20:48 | 35.33753 | -14.45626 | 39195 ft | 424 kts | 220° |
| 2026-05-04 20:48 | 35.29030 | -14.49956 | 39195 ft | 424 kts | 220° |
| 2026-05-04 20:49 | 35.24311 | -14.54275 | 39201 ft | 424 kts | 220° |
| 2026-05-04 20:49 | 35.19586 | -14.58594 | 39197 ft | 424 kts | 220° |
| 2026-05-04 20:50 | 35.14869 | -14.62899 | 39202 ft | 423 kts | 220° |
| 2026-05-04 20:50 | 35.10147 | -14.67201 | 39205 ft | 423 kts | 220° |
| 2026-05-04 20:51 | 35.05433 | -14.71491 | 39187 ft | 423 kts | 220° |
| 2026-05-04 20:51 | 35.00713 | -14.75780 | 39204 ft | 423 kts | 220° |
| 2026-05-04 20:52 | 34.95994 | -14.80060 | 39180 ft | 423 kts | 220° |
| 2026-05-04 20:52 | 34.91265 | -14.84345 | 39197 ft | 423 kts | 220° |
| 2026-05-04 20:53 | 34.86536 | -14.88623 | 39185 ft | 424 kts | 220° |
| 2026-05-04 20:53 | 34.81798 | -14.92902 | 39183 ft | 424 kts | 220° |
| 2026-05-04 20:54 | 34.77054 | -14.97181 | 39181 ft | 425 kts | 220° |
| 2026-05-04 20:54 | 34.72303 | -15.01460 | 39177 ft | 425 kts | 220° |
| 2026-05-04 20:55 | 34.67546 | -15.05738 | 39177 ft | 426 kts | 220° |
| 2026-05-04 20:55 | 34.62798 | -15.09999 | 38797 ft | 422 kts | 220° |
| 2026-05-04 20:56 | 34.60445 | -15.12109 | 38030 ft | 421 kts | 220° |
| 2026-05-04 20:56 | 34.58081 | -15.14227 | 37126 ft | 423 kts | 220° |
| 2026-05-04 20:56 | 34.55705 | -15.16355 | 36132 ft | 425 kts | 220° |
| 2026-05-04 20:56 | 34.53316 | -15.18493 | 35099 ft | 428 kts | 220° |
| 2026-05-04 20:57 | 34.50911 | -15.20646 | 34043 ft | 431 kts | 220° |
| 2026-05-04 20:57 | 34.48516 | -15.22787 | 32795 ft | 435 kts | 220° |
| 2026-05-04 20:57 | 34.46073 | -15.24972 | 31940 ft | 435 kts | 220° |
| 2026-05-04 20:57 | 34.43608 | -15.27174 | 31613 ft | 448 kts | 219° |
| 2026-05-04 20:58 | 34.41095 | -15.29417 | 31344 ft | 448 kts | 219° |
| 2026-05-04 20:58 | 34.38593 | -15.31643 | 31099 ft | 446 kts | 219° |
| 2026-05-04 20:58 | 34.36093 | -15.33867 | 30892 ft | 445 kts | 219° |
| 2026-05-04 20:58 | 34.33603 | -15.36082 | 30705 ft | 445 kts | 219° |
| 2026-05-04 20:59 | 34.31110 | -15.38297 | 30549 ft | 444 kts | 219° |
| 2026-05-04 20:59 | 34.28624 | -15.40506 | 30404 ft | 443 kts | 219° |
| 2026-05-04 20:59 | 34.26140 | -15.42710 | 30283 ft | 443 kts | 219° |
| 2026-05-04 20:59 | 34.23652 | -15.44918 | 30173 ft | 442 kts | 219° |
| 2026-05-04 21:00 | 34.18685 | -15.49319 | 30169 ft | 443 kts | 219° |
| 2026-05-04 21:00 | 34.13717 | -15.53714 | 30164 ft | 443 kts | 218° |
| 2026-05-04 21:01 | 34.08742 | -15.58110 | 30168 ft | 443 kts | 218° |
| 2026-05-04 21:01 | 34.03764 | -15.62501 | 30161 ft | 444 kts | 218° |
| 2026-05-04 21:02 | 33.98775 | -15.66895 | 30163 ft | 444 kts | 218° |
| 2026-05-04 21:02 | 33.93783 | -15.71284 | 30161 ft | 445 kts | 218° |
| 2026-05-04 21:03 | 33.88783 | -15.75675 | 30156 ft | 445 kts | 218° |
| 2026-05-04 21:03 | 33.83775 | -15.80066 | 30158 ft | 446 kts | 218° |
| 2026-05-04 21:04 | 33.78764 | -15.84454 | 30156 ft | 445 kts | 218° |
| 2026-05-04 21:04 | 33.73821 | -15.88775 | 29563 ft | 438 kts | 218° |
| 2026-05-04 21:05 | 33.71366 | -15.90919 | 28816 ft | 433 kts | 218° |
| 2026-05-04 21:05 | 33.68938 | -15.93039 | 28036 ft | 428 kts | 218° |
| 2026-05-04 21:05 | 33.66533 | -15.95108 | 27167 ft | 423 kts | 216° |
| 2026-05-04 21:05 | 33.64063 | -15.96997 | 26317 ft | 418 kts | 214° |
| 2026-05-04 21:06 | 33.61625 | -15.98860 | 25506 ft | 413 kts | 215° |
| 2026-05-04 21:06 | 33.59224 | -16.00706 | 24696 ft | 408 kts | 215° |
| 2026-05-04 21:06 | 33.56849 | -16.02535 | 23909 ft | 403 kts | 215° |
| 2026-05-04 21:06 | 33.54505 | -16.04337 | 23027 ft | 398 kts | 215° |
| 2026-05-04 21:07 | 33.52189 | -16.06116 | 22107 ft | 393 kts | 214° |
| 2026-05-04 21:07 | 33.49903 | -16.07869 | 21239 ft | 387 kts | 214° |
| 2026-05-04 21:07 | 33.47657 | -16.09589 | 20689 ft | 377 kts | 214° |
| 2026-05-04 21:07 | 33.45425 | -16.11298 | 20429 ft | 385 kts | 214° |
| 2026-05-04 21:08 | 33.43166 | -16.13026 | 20249 ft | 385 kts | 214° |
| 2026-05-04 21:08 | 33.40913 | -16.14746 | 20151 ft | 384 kts | 214° |
| 2026-05-04 21:08 | 33.38659 | -16.16466 | 20132 ft | 385 kts | 214° |
| 2026-05-04 21:08 | 33.36400 | -16.18188 | 20133 ft | 385 kts | 214° |
| 2026-05-04 21:09 | 33.34142 | -16.19909 | 20127 ft | 385 kts | 214° |
| 2026-05-04 21:09 | 33.31883 | -16.21629 | 20122 ft | 385 kts | 214° |
| 2026-05-04 21:09 | 33.29621 | -16.23350 | 20119 ft | 385 kts | 214° |
| 2026-05-04 21:09 | 33.27361 | -16.25070 | 20113 ft | 385 kts | 214° |
| 2026-05-04 21:10 | 33.25098 | -16.26790 | 20113 ft | 385 kts | 214° |
| 2026-05-04 21:10 | 33.22837 | -16.28508 | 20108 ft | 385 kts | 214° |
| 2026-05-04 21:10 | 33.20574 | -16.30226 | 20106 ft | 386 kts | 214° |
| 2026-05-04 21:10 | 33.18309 | -16.31945 | 20104 ft | 385 kts | 214° |
| 2026-05-04 21:11 | 33.16044 | -16.33662 | 20104 ft | 386 kts | 214° |
| 2026-05-04 21:11 | 33.13779 | -16.35378 | 20096 ft | 386 kts | 214° |
| 2026-05-04 21:11 | 33.11515 | -16.37093 | 20101 ft | 386 kts | 214° |
| 2026-05-04 21:11 | 33.09249 | -16.38809 | 20117 ft | 386 kts | 214° |
| 2026-05-04 21:12 | 33.06985 | -16.40520 | 20101 ft | 386 kts | 214° |
| 2026-05-04 21:12 | 33.04726 | -16.42227 | 19981 ft | 382 kts | 214° |
| 2026-05-04 21:12 | 33.02490 | -16.43914 | 19432 ft | 380 kts | 214° |
| 2026-05-04 21:12 | 33.00297 | -16.45568 | 18773 ft | 376 kts | 214° |
| 2026-05-04 21:13 | 32.98102 | -16.47223 | 17879 ft | 371 kts | 214° |
| 2026-05-04 21:13 | 32.95930 | -16.48863 | 16843 ft | 368 kts | 213° |
| 2026-05-04 21:13 | 32.93783 | -16.50488 | 15897 ft | 363 kts | 214° |
| 2026-05-04 21:13 | 32.91779 | -16.52284 | 14968 ft | 359 kts | 221° |
| 2026-05-04 21:14 | 32.89935 | -16.54274 | 14035 ft | 356 kts | 222° |
| 2026-05-04 21:14 | 32.88115 | -16.56241 | 13054 ft | 352 kts | 222° |
| 2026-05-04 21:14 | 32.86308 | -16.58180 | 12207 ft | 346 kts | 222° |
| 2026-05-04 21:14 | 32.84576 | -16.60035 | 11933 ft | 322 kts | 222° |
| 2026-05-04 21:15 | 32.82866 | -16.61607 | 11723 ft | 300 kts | 214° |
| 2026-05-04 21:15 | 32.81169 | -16.62876 | 11524 ft | 277 kts | 207° |
| 2026-05-04 21:15 | 32.79388 | -16.63482 | 11344 ft | 257 kts | 190° |
| 2026-05-04 21:15 | 32.77647 | -16.63819 | 10837 ft | 251 kts | 192° |
| 2026-05-04 21:16 | 32.75970 | -16.64365 | 10231 ft | 250 kts | 200° |
| 2026-05-04 21:16 | 32.74381 | -16.65182 | 9635 ft | 248 kts | 207° |
| 2026-05-04 21:16 | 32.72884 | -16.66165 | 9042 ft | 245 kts | 211° |
| 2026-05-04 21:16 | 32.71441 | -16.67223 | 8477 ft | 242 kts | 213° |
| 2026-05-04 21:17 | 32.70036 | -16.68294 | 8224 ft | 243 kts | 213° |
| 2026-05-04 21:17 | 32.68528 | -16.69175 | 8079 ft | 242 kts | 195° |
| 2026-05-04 21:17 | 32.66885 | -16.69536 | 7764 ft | 239 kts | 191° |
| 2026-05-04 21:17 | 32.65246 | -16.69882 | 7319 ft | 238 kts | 191° |
| 2026-05-04 21:18 | 32.63603 | -16.70229 | 7148 ft | 242 kts | 191° |
| 2026-05-04 21:18 | 32.61950 | -16.70577 | 7103 ft | 241 kts | 191° |
| 2026-05-04 21:18 | 32.60322 | -16.70917 | 7103 ft | 241 kts | 191° |
| 2026-05-04 21:18 | 32.58649 | -16.71265 | 7106 ft | 240 kts | 191° |
| 2026-05-04 21:19 | 32.57034 | -16.71600 | 6942 ft | 238 kts | 191° |
| 2026-05-04 21:19 | 32.55414 | -16.71934 | 6455 ft | 236 kts | 191° |
| 2026-05-04 21:19 | 32.53795 | -16.72281 | 5800 ft | 236 kts | 193° |
| 2026-05-04 21:19 | 32.52332 | -16.73105 | 5135 ft | 233 kts | 220° |
| 2026-05-04 21:20 | 32.51398 | -16.74627 | 4504 ft | 230 kts | 247° |
| 2026-05-04 21:20 | 32.51181 | -16.76533 | 3654 ft | 238 kts | 277° |
| 2026-05-04 21:20 | 32.51765 | -16.78281 | 3296 ft | 220 kts | 301° |
| 2026-05-04 21:20 | 32.52336 | -16.79236 | 3101 ft | 210 kts | 308° |
| 2026-05-04 21:21 | 32.53499 | -16.80234 | 2697 ft | 206 kts | 339° |
| 2026-05-04 21:21 | 32.54859 | -16.80429 | 2543 ft | 192 kts | 4° |
| 2026-05-04 21:21 | 32.56177 | -16.80309 | 2243 ft | 189 kts | 3° |
| 2026-05-04 21:21 | 32.57472 | -16.80256 | 2053 ft | 184 kts | 0° |
| 2026-05-04 21:22 | 32.58754 | -16.80252 | 2016 ft | 180 kts | 359° |
| 2026-05-04 21:22 | 32.59966 | -16.80263 | 1921 ft | 168 kts | 359° |
| 2026-05-04 21:22 | 32.61074 | -16.80280 | 1814 ft | 150 kts | 359° |
| 2026-05-04 21:22 | 32.62052 | -16.80309 | 1667 ft | 133 kts | 358° |
| 2026-05-04 21:23 | 32.62949 | -16.80331 | 1405 ft | 126 kts | 359° |
| 2026-05-04 21:23 | 32.63812 | -16.80344 | 1102 ft | 122 kts | 359° |
| 2026-05-04 21:23 | 32.64742 | -16.80346 | 981 ft | 141 kts | 1° |
| 2026-05-04 21:23 | 32.65722 | -16.80302 | 955 ft | 141 kts | 5° |
| 2026-05-04 21:24 | 32.66689 | -16.80134 | 772 ft | 139 kts | 12° |
| 2026-05-04 21:24 | 32.67612 | -16.79786 | 532 ft | 140 kts | 24° |
| 2026-05-04 21:24 | 32.68373 | -16.79125 | 384 ft | 133 kts | 44° |
| 2026-05-04 21:24 | 32.69014 | -16.78349 | 201 ft | 130 kts | 46° |
| 2026-05-04 21:25 | 32.69569 | -16.77701 | 177 ft | 84 kts | 44° |
| 2026-05-04 21:25 | 32.69843 | -16.77385 | 182 ft | 35 kts | 44° |
| 2026-05-04 21:25 | 32.69955 | -16.77214 | 189 ft | 10 kts | 99° |
| 2026-05-04 21:25 | 32.69872 | -16.77178 | 183 ft | 18 kts | 185° |
| 2026-05-04 21:26 | 32.69755 | -16.77286 | 175 ft | 26 kts | 226° |
| 2026-05-04 21:26 | 32.69609 | -16.77459 | 180 ft | 31 kts | 225° |
| 2026-05-04 21:26 | 32.69466 | -16.77636 | 177 ft | 13 kts | 226° |
| 2026-05-04 21:26 | 32.69427 | -16.77664 | 176 ft | 4 kts | 185° |
| 2026-05-04 21:27 | 32.69406 | -16.77645 | 178 ft | 4 kts | 144° |
| 2026-05-04 21:27 | 32.69392 | -16.77632 | 179 ft | 0 kts | 141° |